createdAt,value
2023-05-10T00:00:17.411Z,97530.50
2023-05-10T00:02:44.662Z,97531.81
2023-05-10T00:05:11.224Z,97540.69
2023-05-10T00:07:37.601Z,97540.94
2023-05-10T00:10:04.341Z,97544.91
2023-05-10T00:12:31.010Z,97536.31
2023-05-10T00:14:57.525Z,97539.28
2023-05-10T00:17:24.138Z,97541.97
2023-05-10T00:19:50.670Z,97545.66
2023-05-10T00:22:17.098Z,97534.91
2023-05-10T00:24:43.875Z,97534.66
2023-05-10T00:27:10.369Z,97518.97
2023-05-10T00:29:36.787Z,97529.22
2023-05-10T00:32:04.023Z,97545.06
2023-05-10T00:34:31.408Z,97538.91
2023-05-10T00:36:57.878Z,97484.53
2023-05-10T00:39:24.367Z,97529.78
2023-05-10T00:41:50.863Z,97538.63
2023-05-10T00:44:19.332Z,97533.44
2023-05-10T00:46:46.282Z,97528.09
2023-05-10T00:49:13.987Z,97525.94
2023-05-10T00:51:40.652Z,97526.97
2023-05-10T00:54:07.629Z,97534.19
2023-05-10T00:56:34.648Z,97534.50
2023-05-10T00:59:01.513Z,97533.88
2023-05-10T01:01:28.789Z,97535.59
2023-05-10T01:03:56.161Z,97544.16
2023-05-10T01:06:22.829Z,97538.84
2023-05-10T01:08:49.364Z,97540.94
2023-05-10T01:11:16.181Z,97547.34
2023-05-10T01:13:44.218Z,97551.09
2023-05-10T01:16:10.768Z,97551.63
2023-05-10T01:18:40.253Z,97551.09
2023-05-10T01:21:22.123Z,97552.44
2023-05-10T01:24:27.593Z,97542.03
2023-05-10T01:27:13.845Z,97548.97
2023-05-10T01:30:13.660Z,97537.00
2023-05-10T01:32:51.467Z,97540.53
2023-05-10T01:35:27.603Z,97549.06
2023-05-10T01:38:29.262Z,97548.50
2023-05-10T01:41:20.842Z,97551.78
2023-05-10T01:44:01.634Z,97555.41
2023-05-10T01:46:36.222Z,97557.84
2023-05-10T01:49:04.999Z,97560.53
2023-05-10T01:51:45.742Z,97565.38
2023-05-10T01:54:14.510Z,97558.63
2023-05-10T01:56:44.784Z,97561.34
2023-05-10T01:59:16.347Z,97571.41
2023-05-10T02:01:44.242Z,97567.69
2023-05-10T02:04:15.380Z,97565.06
2023-05-10T02:06:44.180Z,97566.59
2023-05-10T02:09:12.865Z,97564.16
2023-05-10T02:11:42.485Z,97571.94
2023-05-10T02:14:11.749Z,97566.31
2023-05-10T02:16:39.922Z,97563.06
2023-05-10T02:19:09.425Z,97575.88
2023-05-10T02:21:38.294Z,97578.69
2023-05-10T02:24:05.573Z,97583.25
2023-05-10T02:26:35.686Z,97571.13
2023-05-10T02:29:04.493Z,97586.69
2023-05-10T02:31:34.535Z,97592.06
2023-05-10T02:34:02.420Z,97596.09
2023-05-10T02:36:29.636Z,97593.72
2023-05-10T02:38:57.527Z,97599.56
2023-05-10T02:41:27.204Z,97598.75
2023-05-10T02:43:58.520Z,97590.75
2023-05-10T02:46:25.096Z,97588.63
2023-05-10T02:48:51.650Z,97593.41
2023-05-10T02:51:20.005Z,97600.59
2023-05-10T02:53:49.104Z,97601.91
2023-05-10T02:56:25.970Z,97606.50
2023-05-10T02:58:53.460Z,97605.63
2023-05-10T03:01:19.940Z,97605.13
2023-05-10T03:03:46.444Z,97598.41
2023-05-10T03:06:12.994Z,97547.75
2023-05-10T03:08:39.624Z,97609.66
2023-05-10T03:11:25.198Z,97614.50
2023-05-10T03:14:03.053Z,97604.63
2023-05-10T03:16:37.924Z,97610.22
2023-05-10T03:19:16.544Z,97611.28
2023-05-10T03:21:48.327Z,97603.75
2023-05-10T03:24:17.399Z,97548.56
2023-05-10T03:26:46.723Z,97602.13
2023-05-10T03:29:18.268Z,97607.00
2023-05-10T03:31:45.355Z,97597.34
2023-05-10T03:34:12.253Z,97600.88
2023-05-10T03:36:38.820Z,97592.50
2023-05-10T03:39:05.350Z,97602.91
2023-05-10T03:41:31.798Z,97594.50
2023-05-10T03:43:58.301Z,97610.66
2023-05-10T03:46:24.901Z,97616.53
2023-05-10T03:48:51.421Z,97611.19
2023-05-10T03:51:18.563Z,97605.81
2023-05-10T03:53:45.014Z,97610.66
2023-05-10T03:56:11.814Z,97602.06
2023-05-10T03:58:38.621Z,97596.50
2023-05-10T04:01:05.053Z,97610.97
2023-05-10T04:03:31.991Z,97613.91
2023-05-10T04:06:02.821Z,97617.13
2023-05-10T04:08:29.966Z,97620.56
2023-05-10T04:11:09.556Z,97618.66
2023-05-10T04:13:37.418Z,97616.53
2023-05-10T04:16:04.414Z,97616.00
2023-05-10T04:18:31.604Z,97616.13
2023-05-10T04:20:58.333Z,97616.94
2023-05-10T04:23:24.862Z,97618.28
2023-05-10T04:25:51.254Z,97597.22
2023-05-10T04:28:17.681Z,97620.47
2023-05-10T04:30:44.150Z,97617.53
2023-05-10T04:33:10.650Z,97618.34
2023-05-10T04:35:37.138Z,97624.03
2023-05-10T04:38:03.607Z,97616.28
2023-05-10T04:40:30.125Z,97613.50
2023-05-10T04:42:56.563Z,97618.97
2023-05-10T04:45:23.227Z,97625.31
2023-05-10T04:47:49.650Z,97624.81
2023-05-10T04:50:16.569Z,97624.31
2023-05-10T04:52:43.283Z,97636.88
2023-05-10T04:55:10.809Z,97628.84
2023-05-10T04:57:37.228Z,97642.00
2023-05-10T05:00:04.502Z,97612.44
2023-05-10T05:02:32.208Z,97635.13
2023-05-10T05:04:58.833Z,97643.19
2023-05-10T05:07:26.539Z,97652.31
2023-05-10T05:09:52.962Z,97657.44
2023-05-10T05:12:19.906Z,97654.50
2023-05-10T05:14:46.381Z,97659.34
2023-05-10T05:17:12.782Z,97663.41
2023-05-10T05:19:40.000Z,97662.28
2023-05-10T05:22:08.503Z,97665.53
2023-05-10T05:24:41.173Z,97647.56
2023-05-10T05:27:07.877Z,97671.91
2023-05-10T05:29:34.973Z,97673.00
2023-05-10T05:32:01.498Z,97676.50
2023-05-10T05:34:29.614Z,97675.34
2023-05-10T05:36:56.323Z,97664.59
2023-05-10T05:39:23.286Z,97675.13
2023-05-10T05:41:49.753Z,97674.19
2023-05-10T05:44:16.198Z,97680.59
2023-05-10T05:46:42.636Z,97669.13
2023-05-10T05:49:09.125Z,97676.38
2023-05-10T05:51:36.577Z,97674.50
2023-05-10T05:54:05.135Z,97678.34
2023-05-10T05:56:31.561Z,97684.56
2023-05-10T05:58:58.469Z,97679.28
2023-05-10T06:01:24.888Z,97688.28
2023-05-10T06:03:53.304Z,97680.81
2023-05-10T06:06:21.608Z,97678.13
2023-05-10T06:08:47.998Z,97615.13
2023-05-10T06:11:14.480Z,97685.72
2023-05-10T06:13:41.235Z,97690.09
2023-05-10T06:16:08.018Z,97700.78
2023-05-10T06:18:36.445Z,97684.72
2023-05-10T06:21:03.309Z,97694.84
2023-05-10T06:23:29.792Z,97686.09
2023-05-10T06:25:56.298Z,97689.53
2023-05-10T06:28:22.755Z,97692.91
2023-05-10T06:30:49.247Z,97693.03
2023-05-10T06:33:17.522Z,97689.81
2023-05-10T06:35:44.039Z,97692.88
2023-05-10T06:38:10.702Z,97685.31
2023-05-10T06:40:37.208Z,97687.84
2023-05-10T06:43:03.674Z,97681.97
2023-05-10T06:45:30.099Z,97681.31
2023-05-10T06:47:56.840Z,97682.63
2023-05-10T06:50:23.484Z,97684.03
2023-05-10T06:52:51.167Z,97694.81
2023-05-10T06:55:19.713Z,97686.34
2023-05-10T06:57:46.237Z,97693.53
2023-05-10T07:00:13.070Z,97697.41
2023-05-10T07:02:39.613Z,97687.00
2023-05-10T07:05:06.519Z,97702.41
2023-05-10T07:07:33.011Z,97701.09
2023-05-10T07:09:59.573Z,97694.50
2023-05-10T07:12:26.922Z,97710.28
2023-05-10T07:14:53.430Z,97706.41
2023-05-10T07:17:20.191Z,97707.78
2023-05-10T07:19:46.624Z,97710.78
2023-05-10T07:22:13.178Z,97716.47
2023-05-10T07:24:39.707Z,97717.28
2023-05-10T07:27:06.489Z,97725.84
2023-05-10T07:29:33.357Z,97718.00
2023-05-10T07:31:59.961Z,97719.59
2023-05-10T07:34:26.511Z,97718.50
2023-05-10T07:36:53.595Z,97717.09
2023-05-10T07:39:27.258Z,97719.72
2023-05-10T07:41:55.580Z,97723.78
2023-05-10T07:44:22.135Z,97728.69
2023-05-10T07:46:49.445Z,97723.06
2023-05-10T07:49:16.273Z,97734.41
2023-05-10T07:51:43.508Z,97717.81
2023-05-10T07:54:10.009Z,97725.34
2023-05-10T07:56:36.436Z,97730.16
2023-05-10T07:59:08.816Z,97720.50
2023-05-10T08:01:36.190Z,97722.59
2023-05-10T08:04:03.124Z,97733.91
2023-05-10T08:06:30.779Z,97729.88
2023-05-10T08:08:57.210Z,97727.16
2023-05-10T08:11:24.115Z,97731.41
2023-05-10T08:13:51.790Z,97727.84
2023-05-10T08:16:18.687Z,97735.34
2023-05-10T08:18:47.694Z,97726.13
2023-05-10T08:21:15.250Z,97723.91
2023-05-10T08:23:41.979Z,97736.91
2023-05-10T08:26:08.424Z,97742.81
2023-05-10T08:28:34.920Z,97733.25
2023-05-10T08:31:01.384Z,97745.19
2023-05-10T08:33:27.862Z,97751.41
2023-05-10T08:35:54.287Z,97755.44
2023-05-10T08:38:20.780Z,97751.13
2023-05-10T08:40:50.302Z,97758.66
2023-05-10T08:43:16.961Z,97762.97
2023-05-10T08:45:48.828Z,97764.06
2023-05-10T08:48:16.171Z,97763.53
2023-05-10T08:50:44.038Z,97767.78
2023-05-10T08:53:12.537Z,97746.81
2023-05-10T08:55:39.810Z,97768.03
2023-05-10T08:58:07.432Z,97779.03
2023-05-10T09:00:34.691Z,97767.69
2023-05-10T09:03:02.204Z,97765.84
2023-05-10T09:05:29.153Z,97774.78
2023-05-10T09:07:55.739Z,97779.09
2023-05-10T09:10:23.066Z,97779.91
2023-05-10T09:12:50.326Z,97798.13
2023-05-10T09:15:20.184Z,97801.03
2023-05-10T09:17:48.177Z,97810.31
2023-05-10T09:20:14.810Z,97816.19
2023-05-10T09:22:41.521Z,97818.38
2023-05-10T09:25:15.720Z,97811.59
2023-05-10T09:27:46.159Z,97817.53
2023-05-10T09:30:18.185Z,97822.97
2023-05-10T09:32:47.010Z,97813.06
2023-05-10T09:35:16.258Z,97822.31
2023-05-10T09:37:45.571Z,97810.81
2023-05-10T09:40:20.524Z,97810.84
2023-05-10T09:43:01.613Z,97814.28
2023-05-10T09:45:32.740Z,97737.91
2023-05-10T09:48:01.488Z,97815.03
2023-05-10T09:50:28.350Z,97799.47
2023-05-10T09:53:03.995Z,97802.75
2023-05-10T09:55:39.881Z,97806.28
2023-05-10T09:58:10.397Z,97809.78
2023-05-10T10:00:38.823Z,97798.72
2023-05-10T10:03:06.396Z,97823.19
2023-05-10T10:05:35.276Z,97825.31
2023-05-10T10:08:05.604Z,97825.81
2023-05-10T10:10:33.222Z,97830.06
2023-05-10T10:13:00.790Z,97815.78
2023-05-10T10:15:27.314Z,97829.47
2023-05-10T10:17:54.602Z,97825.50
2023-05-10T10:20:23.362Z,97826.09
2023-05-10T10:22:50.168Z,97829.00
2023-05-10T10:25:18.382Z,97822.63
2023-05-10T10:27:54.143Z,97830.19
2023-05-10T10:30:32.597Z,97825.31
2023-05-10T10:33:35.009Z,97824.78
2023-05-10T10:36:04.089Z,97819.47
2023-05-10T10:39:00.588Z,97818.94
2023-05-10T10:41:36.977Z,97814.50
2023-05-10T10:44:38.794Z,97807.41
2023-05-10T10:47:12.549Z,97812.81
2023-05-10T10:49:48.994Z,97795.16
2023-05-10T10:52:16.314Z,97807.03
2023-05-10T10:54:51.147Z,97808.69
2023-05-10T10:57:19.817Z,97816.44
2023-05-10T10:59:47.166Z,97804.78
2023-05-10T11:02:43.963Z,97798.44
2023-05-10T11:05:28.689Z,97812.22
2023-05-10T11:07:57.313Z,97806.09
2023-05-10T11:10:25.361Z,97805.66
2023-05-10T11:13:04.188Z,97807.94
2023-05-10T11:15:35.694Z,97814.41
2023-05-10T11:18:31.211Z,97808.47
2023-05-10T11:21:10.201Z,97805.03
2023-05-10T11:24:19.484Z,97821.44
2023-05-10T11:26:46.088Z,97821.47
2023-05-10T11:29:14.683Z,97817.78
2023-05-10T11:31:48.592Z,97823.69
2023-05-10T11:34:32.105Z,97821.06
2023-05-10T11:36:58.877Z,97796.84
2023-05-10T11:39:32.558Z,97833.97
2023-05-10T11:41:59.565Z,97826.75
2023-05-10T11:44:32.944Z,97830.78
2023-05-10T11:47:01.145Z,97833.47
2023-05-10T11:49:27.746Z,97838.84
2023-05-10T11:51:54.157Z,97827.28
2023-05-10T11:54:20.691Z,97825.38
2023-05-10T11:56:47.148Z,97843.97
2023-05-10T11:59:15.711Z,97848.53
2023-05-10T12:01:42.612Z,97850.66
2023-05-10T12:04:09.443Z,97841.72
2023-05-10T12:06:41.516Z,97843.50
2023-05-10T12:09:09.099Z,97845.66
2023-05-10T12:11:43.583Z,97828.13
2023-05-10T12:14:11.420Z,97833.81
2023-05-10T12:16:37.907Z,97838.13
2023-05-10T12:19:04.613Z,97845.19
2023-05-10T12:21:31.679Z,97838.22
2023-05-10T12:24:04.275Z,97844.09
2023-05-10T12:26:31.369Z,97821.81
2023-05-10T12:29:18.541Z,97845.13
2023-05-10T12:31:56.040Z,97850.28
2023-05-10T12:34:36.229Z,97823.16
2023-05-10T12:37:05.497Z,97843.56
2023-05-10T12:51:53.525Z,97835.91
2023-05-10T12:54:19.992Z,97835.09
2023-05-10T12:56:46.381Z,97847.34
2023-05-10T12:59:12.829Z,97842.78
2023-05-10T13:01:39.533Z,97836.34
2023-05-10T13:04:06.328Z,97841.13
2023-05-10T13:06:33.010Z,97823.03
2023-05-10T13:08:59.549Z,97850.22
2023-05-10T13:11:26.074Z,97852.41
2023-05-10T13:13:52.859Z,97849.53
2023-05-10T13:16:19.413Z,97857.41
2023-05-10T13:18:45.958Z,97855.13
2023-05-10T13:21:12.564Z,97858.03
2023-05-10T13:23:39.123Z,97843.44
2023-05-10T13:26:05.624Z,97849.88
2023-05-10T13:28:32.138Z,97836.91
2023-05-10T13:30:58.672Z,97856.75
2023-05-10T13:33:25.419Z,97856.44
2023-05-10T13:35:53.710Z,97852.03
2023-05-10T13:38:22.493Z,97853.16
2023-05-10T13:40:49.144Z,97856.09
2023-05-10T13:43:16.222Z,97849.44
2023-05-10T13:45:42.692Z,97838.09
2023-05-10T13:48:09.277Z,97843.50
2023-05-10T13:50:35.774Z,97845.63
2023-05-10T13:53:02.441Z,97843.56
2023-05-10T13:55:29.641Z,97838.44
2023-05-10T13:57:56.094Z,97842.28
2023-05-10T14:00:22.735Z,97833.53
2023-05-10T14:02:49.392Z,97826.19
2023-05-10T14:05:16.992Z,97824.47
2023-05-10T14:07:44.690Z,97818.28
2023-05-10T14:10:11.239Z,97810.09
2023-05-10T14:12:37.860Z,97815.22
2023-05-10T14:15:06.737Z,97820.00
2023-05-10T14:17:33.237Z,97807.06
2023-05-10T14:19:59.776Z,97816.41
2023-05-10T14:22:26.369Z,97820.75
2023-05-10T14:24:52.804Z,97815.03
2023-05-10T14:27:19.534Z,97805.94
2023-05-10T14:29:46.184Z,97808.13
2023-05-10T14:32:12.753Z,97800.63
2023-05-10T14:34:39.358Z,97802.81
2023-05-10T14:37:05.870Z,97807.31
2023-05-10T14:39:32.485Z,97786.63
2023-05-10T14:41:59.483Z,97788.03
2023-05-10T14:44:25.981Z,97794.00
2023-05-10T14:46:52.752Z,97797.94
2023-05-10T14:49:19.200Z,97783.91
2023-05-10T14:51:46.533Z,97781.88
2023-05-10T14:54:12.940Z,97778.72
2023-05-10T14:56:39.475Z,97745.16
2023-05-10T14:59:05.949Z,97792.84
2023-05-10T15:01:33.912Z,97791.84
2023-05-10T15:04:01.080Z,97758.22
2023-05-10T15:06:32.753Z,97787.56
2023-05-10T15:08:59.226Z,97765.53
2023-05-10T15:11:25.623Z,97788.50
2023-05-10T15:13:52.211Z,97787.66
2023-05-10T15:16:20.434Z,97784.41
2023-05-10T15:18:46.901Z,97778.41
2023-05-10T15:21:13.613Z,97793.41
2023-05-10T15:23:41.213Z,97791.22
2023-05-10T15:26:07.701Z,97784.59
2023-05-10T15:28:34.539Z,97787.91
2023-05-10T15:31:01.366Z,97788.22
2023-05-10T15:33:28.413Z,97780.84
2023-05-10T15:35:55.175Z,97776.72
2023-05-10T15:38:21.806Z,97785.34
2023-05-10T15:40:48.202Z,97796.78
2023-05-10T15:43:15.010Z,97794.03
2023-05-10T15:45:41.546Z,97781.94
2023-05-10T15:48:08.017Z,97784.16
2023-05-10T15:50:34.612Z,97790.69
2023-05-10T15:53:00.991Z,97780.19
2023-05-10T15:55:27.637Z,97749.50
2023-05-10T15:57:54.114Z,97784.91
2023-05-10T16:00:20.980Z,97789.31
2023-05-10T16:02:47.475Z,97795.97
2023-05-10T16:05:14.250Z,97789.75
2023-05-10T16:07:41.946Z,97792.97
2023-05-10T16:10:10.537Z,97792.41
2023-05-10T16:12:37.171Z,97796.53
2023-05-10T16:15:04.218Z,97794.81
2023-05-10T16:17:32.818Z,97807.72
2023-05-10T16:19:59.489Z,97791.28
2023-05-10T16:22:27.281Z,97802.63
2023-05-10T16:24:53.890Z,97793.22
2023-05-10T16:27:20.689Z,97782.50
2023-05-10T16:29:48.112Z,97791.59
2023-05-10T16:32:14.558Z,97798.03
2023-05-10T16:34:41.302Z,97792.19
2023-05-10T16:37:07.844Z,97795.22
2023-05-10T16:39:34.236Z,97794.38
2023-05-10T16:42:01.064Z,97801.63
2023-05-10T16:44:27.516Z,97793.28
2023-05-10T16:46:54.936Z,97787.34
2023-05-10T16:49:22.703Z,97799.69
2023-05-10T16:51:50.117Z,97801.56
2023-05-10T16:54:17.210Z,97811.00
2023-05-10T16:56:43.736Z,97813.63
2023-05-10T16:59:10.122Z,97800.16
2023-05-10T17:01:36.556Z,97808.22
2023-05-10T17:04:03.218Z,97788.34
2023-05-10T17:06:29.668Z,97810.59
2023-05-10T17:08:56.048Z,97812.56
2023-05-10T17:11:22.545Z,97819.84
2023-05-10T17:13:49.049Z,97770.72
2023-05-10T17:16:15.726Z,97824.66
2023-05-10T17:18:42.556Z,97829.56
2023-05-10T17:21:09.519Z,97835.00
2023-05-10T17:23:35.992Z,97833.44
2023-05-10T17:26:04.892Z,97828.28
2023-05-10T17:28:31.384Z,97836.38
2023-05-10T17:30:58.278Z,97839.91
2023-05-10T17:33:24.805Z,97766.44
2023-05-10T17:35:51.524Z,97839.59
2023-05-10T17:38:18.000Z,97839.88
2023-05-10T17:40:44.517Z,97833.69
2023-05-10T17:43:10.928Z,97838.84
2023-05-10T17:45:37.449Z,97839.38
2023-05-10T17:48:04.302Z,97839.41
2023-05-10T17:50:32.559Z,97850.13
2023-05-10T17:52:59.038Z,97833.19
2023-05-10T17:55:27.017Z,97844.25
2023-05-10T17:57:53.646Z,97854.44
2023-05-10T18:00:20.276Z,97837.22
2023-05-10T18:02:46.760Z,97856.59
2023-05-10T18:05:13.441Z,97859.25
2023-05-10T18:19:49.154Z,97864.69
2023-05-10T18:22:15.657Z,97870.59
2023-05-10T18:24:42.126Z,97865.19
2023-05-10T18:27:09.232Z,97824.81
2023-05-10T18:29:36.754Z,97866.03
2023-05-10T18:32:03.350Z,97865.75
2023-05-10T18:34:29.826Z,97878.63
2023-05-10T18:36:56.604Z,97878.91
2023-05-10T18:39:24.231Z,97876.19
2023-05-10T18:41:50.878Z,97870.28
2023-05-10T18:44:18.757Z,97886.13
2023-05-10T18:46:45.313Z,97873.69
2023-05-10T18:49:11.846Z,97889.72
2023-05-10T18:51:38.252Z,97895.94
2023-05-10T18:54:04.725Z,97889.53
2023-05-10T18:56:31.427Z,97885.53
2023-05-10T18:58:58.041Z,97883.06
2023-05-10T19:01:24.567Z,97885.06
2023-05-10T19:03:51.044Z,97899.00
2023-05-10T19:06:17.475Z,97896.59
2023-05-10T19:08:43.896Z,97832.66
2023-05-10T19:11:10.456Z,97899.34
2023-05-10T19:13:37.039Z,97905.09
2023-05-10T19:16:05.211Z,97907.94
2023-05-10T19:18:33.215Z,97909.47
2023-05-10T19:21:03.554Z,97914.34
2023-05-10T19:23:33.189Z,97913.88
2023-05-10T19:26:00.257Z,97912.09
2023-05-10T19:28:27.044Z,97910.94
2023-05-10T19:30:53.691Z,97921.41
2023-05-10T19:33:20.296Z,97912.47
2023-05-10T19:35:46.795Z,97921.56
2023-05-10T19:38:13.288Z,97923.94
2023-05-10T19:40:39.824Z,97910.56
2023-05-10T19:43:06.286Z,97911.78
2023-05-10T19:45:33.994Z,97918.88
2023-05-10T19:48:01.282Z,97920.66
2023-05-10T19:50:27.738Z,97931.38
2023-05-10T19:52:54.258Z,97934.13
2023-05-10T19:55:29.380Z,97936.91
2023-05-10T19:57:56.366Z,97937.44
2023-05-10T20:00:24.972Z,97905.88
2023-05-10T20:02:51.578Z,97936.72
2023-05-10T20:05:18.394Z,97945.31
2023-05-10T20:07:45.331Z,97921.00
2023-05-10T20:10:11.972Z,97951.31
2023-05-10T20:12:38.462Z,97945.56
2023-05-10T20:15:07.420Z,97948.25
2023-05-10T20:17:35.295Z,97952.94
2023-05-10T20:20:01.815Z,97918.31
2023-05-10T20:22:28.296Z,97958.53
2023-05-10T20:24:56.214Z,97961.72
2023-05-10T20:27:23.318Z,97959.44
2023-05-10T20:29:49.825Z,97964.91
2023-05-10T20:32:16.309Z,97964.91
2023-05-10T20:34:42.803Z,97967.44
2023-05-10T20:37:09.317Z,97949.13
2023-05-10T20:39:35.837Z,97977.00
2023-05-10T20:42:02.365Z,97969.38
2023-05-10T20:44:28.804Z,97970.69
2023-05-10T20:46:55.351Z,97968.97
2023-05-10T20:49:21.854Z,97957.31
2023-05-10T20:51:48.319Z,97963.47
2023-05-10T20:54:14.741Z,97961.72
2023-05-10T20:56:41.566Z,97952.78
2023-05-10T20:59:07.983Z,97952.47
2023-05-10T21:01:34.443Z,97957.22
2023-05-10T21:04:00.930Z,97930.31
2023-05-10T21:06:27.386Z,97956.56
2023-05-10T21:08:53.817Z,97952.19
2023-05-10T21:11:20.779Z,97963.38
2023-05-10T21:13:47.193Z,97967.31
2023-05-10T21:16:13.708Z,97966.72
2023-05-10T21:18:40.305Z,97955.38
2023-05-10T21:21:06.823Z,97968.63
2023-05-10T21:23:34.400Z,97962.13
2023-05-10T21:26:03.539Z,97961.69
2023-05-10T21:28:30.071Z,97966.91
2023-05-10T21:30:56.702Z,97969.09
2023-05-10T21:33:23.722Z,97965.25
2023-05-10T21:35:50.411Z,97970.91
2023-05-10T21:38:16.881Z,97972.63
2023-05-10T21:40:43.370Z,97963.72
2023-05-10T21:43:11.190Z,97960.50
2023-05-10T21:45:38.066Z,97966.19
2023-05-10T21:48:04.688Z,97969.91
2023-05-10T21:50:31.225Z,97958.31
2023-05-10T21:52:57.908Z,97963.97
2023-05-10T21:55:24.482Z,97964.78
2023-05-10T21:57:51.058Z,97960.03
2023-05-10T22:00:19.211Z,97933.69
2023-05-10T22:02:46.538Z,97961.78
2023-05-10T22:05:13.487Z,97954.00
2023-05-10T22:07:40.094Z,97955.53
2023-05-10T22:10:08.562Z,97926.16
2023-05-10T22:12:35.196Z,97955.13
2023-05-10T22:15:10.286Z,97942.41
2023-05-10T22:17:39.374Z,97896.31
2023-05-10T22:20:09.466Z,97922.78
2023-05-10T22:22:36.677Z,97961.03
2023-05-10T22:25:04.420Z,97959.22
2023-05-10T22:27:30.794Z,97958.06
2023-05-10T22:29:58.170Z,97966.94
2023-05-10T22:32:24.777Z,97923.47
2023-05-10T22:34:51.443Z,97965.13
2023-05-10T22:37:18.014Z,97968.88
2023-05-10T22:39:48.115Z,97958.06
2023-05-10T22:42:14.499Z,97967.81
2023-05-10T22:44:41.133Z,97952.00
2023-05-10T22:47:08.951Z,97957.00
2023-05-10T22:49:35.522Z,97965.25
2023-05-10T22:52:01.911Z,97961.44
2023-05-10T22:54:28.397Z,97961.88
2023-05-10T22:56:56.402Z,97957.28
2023-05-10T22:59:23.212Z,97963.19
2023-05-10T23:01:49.743Z,97961.19
2023-05-10T23:04:16.190Z,97952.38
2023-05-10T23:06:42.637Z,97978.69
2023-05-10T23:09:09.814Z,97965.28
2023-05-10T23:11:36.484Z,97963.47
2023-05-10T23:14:03.250Z,97964.44
2023-05-10T23:16:30.591Z,97957.25
2023-05-10T23:18:57.363Z,97970.13
2023-05-10T23:21:25.128Z,97973.81
2023-05-10T23:23:52.437Z,97970.19
2023-05-10T23:26:18.956Z,97975.88
2023-05-10T23:28:45.368Z,97972.19
2023-05-10T23:31:11.872Z,97966.28
2023-05-10T23:33:38.317Z,97970.72
2023-05-10T23:36:04.998Z,97969.59
2023-05-10T23:38:31.587Z,97970.16
2023-05-10T23:40:58.003Z,97969.75
2023-05-10T23:43:25.263Z,97972.22
2023-05-10T23:45:57.022Z,97968.44
2023-05-10T23:48:24.121Z,97967.03
2023-05-10T23:50:50.678Z,97966.09
2023-05-10T23:53:17.222Z,97973.75
2023-05-10T23:55:43.994Z,97962.56
2023-05-10T23:58:10.626Z,97965.75
